createdAt,value
2018-03-20T00:00:50.639Z,15.47
2018-03-20T00:03:19.887Z,15.83
2018-03-20T00:05:48.737Z,15.60
2018-03-20T00:08:17.592Z,15.47
2018-03-20T00:10:46.855Z,15.87
2018-03-20T00:13:15.712Z,15.33
2018-03-20T00:15:44.556Z,15.77
2018-03-20T00:18:13.468Z,14.20
2018-03-20T00:20:42.386Z,15.13
2018-03-20T00:23:11.229Z,15.23
2018-03-20T00:25:40.406Z,15.03
2018-03-20T00:28:09.263Z,14.83
2018-03-20T00:30:38.116Z,15.17
2018-03-20T00:33:07.096Z,15.00
2018-03-20T00:35:35.962Z,14.73
2018-03-20T00:38:04.824Z,14.73
2018-03-20T00:40:33.884Z,14.63
2018-03-20T00:43:02.803Z,14.73
2018-03-20T00:45:31.655Z,15.70
2018-03-20T00:48:01.371Z,15.00
2018-03-20T00:50:30.215Z,13.80
2018-03-20T00:53:00.038Z,14.77
2018-03-20T00:55:28.946Z,15.30
2018-03-20T00:57:57.903Z,14.77
2018-03-20T01:00:26.758Z,15.33
2018-03-20T01:02:55.835Z,15.00
2018-03-20T01:05:24.693Z,14.00
2018-03-20T01:07:53.559Z,14.43
2018-03-20T01:10:23.325Z,14.90
2018-03-20T01:12:52.174Z,14.77
2018-03-20T01:15:21.027Z,14.27
2018-03-20T01:17:49.943Z,15.27
2018-03-20T01:20:18.790Z,14.07
2018-03-20T01:22:47.652Z,13.53
2018-03-20T01:25:16.785Z,13.97
2018-03-20T01:27:45.626Z,14.03
2018-03-20T01:30:14.568Z,14.10
2018-03-20T01:32:43.451Z,14.73
2018-03-20T01:35:12.394Z,13.63
2018-03-20T01:37:41.531Z,13.57
2018-03-20T01:40:10.399Z,14.07
2018-03-20T01:42:39.246Z,14.87
2018-03-20T01:45:08.142Z,13.83
2018-03-20T01:47:37.004Z,14.43
2018-03-20T01:50:06.193Z,14.47
2018-03-20T01:52:35.154Z,14.07
2018-03-20T01:55:05.018Z,14.60
2018-03-20T01:57:33.910Z,14.40
2018-03-20T02:00:02.758Z,14.57
2018-03-20T02:02:31.714Z,14.43
2018-03-20T02:05:01.490Z,14.47
2018-03-20T02:07:30.355Z,14.00
2018-03-20T02:09:59.209Z,13.73
2018-03-20T02:12:28.276Z,14.17
2018-03-20T02:14:58.286Z,13.57
2018-03-20T02:17:27.142Z,14.33
2018-03-20T02:19:56.026Z,13.97
2018-03-20T02:22:24.898Z,14.20
2018-03-20T02:24:53.711Z,14.80
2018-03-20T02:27:23.854Z,15.07
2018-03-20T02:29:52.706Z,15.07
2018-03-20T02:32:21.574Z,15.10
2018-03-20T02:34:51.551Z,14.33
2018-03-20T02:37:20.411Z,15.70
2018-03-20T02:39:49.264Z,15.10
2018-03-20T02:42:18.150Z,15.60
2018-03-20T02:44:47.007Z,15.33
2018-03-20T02:47:15.866Z,15.20
2018-03-20T02:49:44.799Z,14.57
2018-03-20T02:52:13.657Z,14.40
2018-03-20T02:54:42.509Z,15.00
2018-03-20T02:57:13.326Z,15.23
2018-03-20T02:59:43.958Z,15.43
2018-03-20T03:02:12.814Z,14.80
2018-03-20T03:04:41.717Z,14.53
2018-03-20T03:07:10.658Z,15.87
2018-03-20T03:09:39.727Z,15.57
2018-03-20T03:12:08.630Z,14.87
2018-03-20T03:14:37.485Z,15.57
2018-03-20T03:17:06.414Z,16.50
2018-03-20T03:19:35.309Z,15.97
2018-03-20T03:22:04.164Z,16.10
2018-03-20T03:24:33.014Z,15.60
2018-03-20T03:27:02.011Z,15.00
2018-03-20T03:29:30.881Z,15.50
2018-03-20T03:31:59.727Z,16.30
2018-03-20T03:34:28.856Z,16.37
2018-03-20T03:36:57.726Z,15.90
2018-03-20T03:39:26.623Z,15.80
2018-03-20T03:41:55.475Z,16.40
2018-03-20T03:44:24.336Z,15.20
2018-03-20T03:46:53.406Z,16.13
2018-03-20T03:49:22.359Z,15.00
2018-03-20T03:51:51.210Z,15.20
2018-03-20T03:54:20.091Z,14.93
2018-03-20T03:56:48.947Z,14.83
2018-03-20T03:59:18.499Z,14.77
2018-03-20T04:01:47.343Z,13.53
2018-03-20T04:04:16.194Z,14.83
2018-03-20T04:06:45.094Z,14.90
2018-03-20T04:09:13.956Z,15.53
2018-03-20T04:11:42.803Z,14.43
2018-03-20T04:14:11.703Z,15.53
2018-03-20T04:16:40.578Z,15.10
2018-03-20T04:19:09.436Z,16.03
2018-03-20T04:21:38.347Z,14.40
2018-03-20T04:24:07.203Z,15.03
2018-03-20T04:26:36.064Z,15.70
2018-03-20T04:29:05.691Z,15.23
2018-03-20T04:31:34.617Z,15.90
2018-03-20T04:34:03.694Z,15.43
2018-03-20T04:36:32.735Z,15.03
2018-03-20T04:39:01.607Z,15.63
2018-03-20T04:41:30.467Z,15.80
2018-03-20T04:43:59.375Z,16.20
2018-03-20T04:46:28.291Z,16.53
2018-03-20T04:48:57.145Z,16.70
2018-03-20T04:51:26.440Z,16.40
2018-03-20T04:53:55.308Z,16.27
2018-03-20T04:56:24.120Z,17.20
2018-03-20T04:58:54.236Z,16.23
2018-03-20T05:01:23.081Z,16.37
2018-03-20T05:03:51.994Z,14.53
2018-03-20T05:06:20.915Z,16.83
2018-03-20T05:08:49.742Z,17.00
2018-03-20T05:11:19.086Z,17.33
2018-03-20T05:13:48.142Z,17.43
2018-03-20T05:16:17.025Z,17.47
2018-03-20T05:19:03.754Z,18.80
2018-03-20T05:21:47.554Z,16.17
2018-03-20T05:24:16.390Z,16.63
2018-03-20T05:26:45.248Z,17.67
2018-03-20T05:29:14.153Z,16.20
2018-03-20T05:31:43.006Z,17.40
2018-03-20T05:34:11.862Z,18.30
2018-03-20T05:36:40.797Z,17.03
2018-03-20T05:39:09.658Z,17.43
2018-03-20T05:41:38.515Z,16.20
2018-03-20T05:44:07.410Z,17.07
2018-03-20T05:46:37.210Z,16.03
2018-03-20T05:49:12.189Z,16.67
2018-03-20T05:51:46.743Z,17.90
2018-03-20T05:54:15.926Z,18.73
2018-03-20T05:56:44.775Z,19.33
2018-03-20T05:59:13.634Z,18.27
2018-03-20T06:01:45.033Z,17.73
2018-03-20T06:04:13.904Z,18.43
2018-03-20T06:06:42.750Z,17.60
2018-03-20T06:09:11.675Z,18.13
2018-03-20T06:11:40.530Z,18.67
2018-03-20T06:14:09.478Z,17.90
2018-03-20T06:16:38.392Z,16.63
2018-03-20T06:19:07.251Z,17.93
2018-03-20T06:21:36.233Z,16.57
2018-03-20T06:24:05.468Z,17.20
2018-03-20T06:26:34.334Z,17.30
2018-03-20T06:29:03.183Z,18.23
2018-03-20T06:31:32.063Z,17.77
2018-03-20T06:34:00.915Z,17.13
2018-03-20T06:36:29.791Z,16.80
2018-03-20T06:38:58.681Z,16.43
2018-03-20T06:41:28.533Z,16.27
2018-03-20T06:43:57.385Z,17.00
2018-03-20T06:46:26.260Z,18.40
2018-03-20T06:48:55.143Z,16.43
2018-03-20T06:51:24.051Z,16.90
2018-03-20T06:53:53.090Z,15.63
2018-03-20T06:56:21.946Z,16.37
2018-03-20T06:58:50.811Z,16.90
2018-03-20T07:01:19.723Z,15.93
2018-03-20T07:03:48.820Z,16.97
2018-03-20T07:06:17.715Z,16.03
2018-03-20T07:08:46.746Z,16.23
2018-03-20T07:11:15.607Z,17.13
2018-03-20T07:13:44.461Z,17.13
2018-03-20T07:16:14.185Z,15.53
2018-03-20T07:18:43.088Z,15.87
2018-03-20T07:21:11.943Z,15.97
2018-03-20T07:23:40.834Z,15.13
2018-03-20T07:26:09.687Z,16.50
2018-03-20T07:28:38.587Z,15.60
2018-03-20T07:31:07.707Z,15.90
2018-03-20T07:33:36.587Z,15.07
2018-03-20T07:36:05.777Z,15.37
2018-03-20T07:38:34.630Z,15.27
2018-03-20T07:41:03.480Z,15.37
2018-03-20T07:43:32.415Z,16.30
2018-03-20T07:46:01.458Z,15.43
2018-03-20T07:48:30.379Z,14.77
2018-03-20T07:50:59.939Z,14.37
2018-03-20T07:53:28.810Z,15.10
2018-03-20T07:55:57.667Z,15.07
2018-03-20T07:58:26.914Z,14.03
2018-03-20T08:00:55.787Z,13.77
2018-03-20T08:03:24.644Z,14.60
2018-03-20T08:05:56.779Z,13.47
2018-03-20T08:08:25.649Z,13.80
2018-03-20T08:10:54.614Z,13.77
2018-03-20T08:13:23.534Z,13.53
2018-03-20T08:15:52.387Z,11.43
2018-03-20T08:18:21.242Z,10.90
2018-03-20T08:20:50.228Z,10.50
2018-03-20T08:23:19.081Z,10.07
2018-03-20T08:25:47.938Z,11.30
2018-03-20T08:28:17.397Z,8.27
2018-03-20T08:30:46.422Z,8.03
2018-03-20T08:33:15.259Z,8.27
2018-03-20T08:35:44.385Z,7.13
2018-03-20T08:38:13.261Z,7.30
2018-03-20T08:40:42.110Z,7.83
2018-03-20T08:43:10.983Z,6.37
2018-03-20T08:45:39.835Z,6.93
2018-03-20T08:48:08.798Z,7.23
2018-03-20T08:50:37.789Z,7.13
2018-03-20T08:53:06.649Z,7.70
2018-03-20T08:55:35.567Z,7.23
2018-03-20T08:58:04.464Z,8.00
2018-03-20T09:00:33.280Z,6.90
2018-03-20T09:03:03.263Z,6.67
2018-03-20T09:05:32.116Z,7.10
2018-03-20T09:08:01.602Z,7.33
2018-03-20T09:10:30.487Z,7.13
2018-03-20T09:12:59.350Z,7.70
2018-03-20T09:15:28.547Z,7.27
2018-03-20T09:17:57.439Z,7.20
2018-03-20T09:20:26.288Z,6.20
2018-03-20T09:22:55.158Z,6.53
2018-03-20T09:25:24.019Z,6.20
2018-03-20T09:27:58.082Z,6.00
2018-03-20T09:30:26.911Z,6.33
2018-03-20T09:32:55.829Z,6.30
2018-03-20T09:35:24.757Z,6.13
2018-03-20T09:37:53.586Z,6.43
2018-03-20T09:40:23.438Z,5.90
2018-03-20T09:42:52.287Z,5.27
2018-03-20T09:45:21.129Z,5.90
2018-03-20T09:47:50.022Z,5.90
2018-03-20T09:50:18.862Z,6.00
2018-03-20T09:52:47.722Z,6.53
2018-03-20T09:55:16.979Z,6.23
2018-03-20T09:57:45.910Z,5.90
2018-03-20T10:00:14.827Z,6.20
2018-03-20T10:02:44.451Z,7.07
2018-03-20T10:05:13.310Z,6.93
2018-03-20T10:07:42.576Z,6.57
2018-03-20T10:10:12.052Z,7.10
2018-03-20T10:12:44.996Z,6.80
2018-03-20T10:15:13.849Z,6.73
2018-03-20T10:17:42.728Z,5.90
2018-03-20T10:20:11.860Z,6.10
2018-03-20T10:22:40.755Z,5.40
2018-03-20T10:25:09.586Z,6.37
2018-03-20T10:27:38.482Z,6.03
2018-03-20T10:30:07.468Z,7.60
2018-03-20T10:32:36.342Z,7.77
2018-03-20T10:35:05.223Z,7.57
2018-03-20T10:37:34.165Z,6.77
2018-03-20T10:40:03.135Z,6.37
2018-03-20T10:42:31.996Z,7.17
2018-03-20T10:45:00.962Z,7.40
2018-03-20T10:47:29.817Z,7.63
2018-03-20T10:49:58.669Z,7.73
2018-03-20T10:52:28.042Z,6.63
2018-03-20T10:54:56.874Z,6.93
2018-03-20T10:57:25.760Z,7.50
2018-03-20T10:59:54.628Z,6.43
2018-03-20T11:02:29.372Z,6.57
2018-03-20T11:04:58.216Z,6.07
2018-03-20T11:07:27.087Z,7.17
2018-03-20T11:09:56.635Z,7.10
2018-03-20T11:12:26.913Z,7.27
2018-03-20T11:14:55.828Z,6.60
2018-03-20T11:17:24.724Z,7.40
2018-03-20T11:19:53.574Z,7.33
2018-03-20T11:22:22.420Z,7.10
2018-03-20T11:24:51.318Z,8.00
2018-03-20T11:27:20.158Z,7.13
2018-03-20T11:29:49.025Z,7.60
2018-03-20T11:32:17.927Z,7.50
2018-03-20T11:34:46.791Z,7.00
2018-03-20T11:37:15.657Z,7.63
2018-03-20T11:39:44.582Z,7.93
2018-03-20T11:42:13.449Z,8.40
2018-03-20T11:44:42.304Z,7.43
2018-03-20T11:47:11.759Z,8.80
2018-03-20T11:49:40.614Z,8.13
2018-03-20T11:52:09.614Z,8.53
2018-03-20T11:54:38.474Z,8.83
2018-03-20T11:57:07.325Z,8.50
2018-03-20T11:59:40.756Z,8.77
2018-03-20T12:02:10.077Z,9.77
2018-03-20T12:04:38.933Z,8.63
2018-03-20T12:07:07.869Z,8.57
2018-03-20T12:09:46.554Z,9.20
2018-03-20T12:12:15.408Z,9.17
2018-03-20T12:14:44.972Z,9.23
2018-03-20T12:17:13.939Z,9.37
2018-03-20T12:19:42.800Z,8.93
2018-03-20T12:22:11.670Z,9.13
2018-03-20T12:24:40.882Z,9.20
2018-03-20T12:27:09.734Z,9.63
2018-03-20T12:29:38.647Z,8.80
2018-03-20T12:32:08.680Z,8.50
2018-03-20T12:34:37.601Z,8.93
2018-03-20T12:37:06.459Z,9.50
2018-03-20T12:39:35.352Z,9.33
2018-03-20T12:42:04.203Z,9.10
2018-03-20T12:44:33.100Z,9.60
2018-03-20T12:47:01.952Z,8.60
2018-03-20T12:49:32.439Z,9.17
2018-03-20T12:52:01.310Z,8.17
2018-03-20T12:54:30.212Z,8.23
2018-03-20T12:56:59.526Z,8.67
2018-03-20T12:59:28.398Z,8.47
2018-03-20T13:01:57.252Z,7.97
2018-03-20T13:04:26.227Z,8.20
2018-03-20T13:06:55.073Z,8.27
2018-03-20T13:09:23.967Z,8.33
2018-03-20T13:11:52.831Z,8.63
2018-03-20T13:14:21.746Z,8.57
2018-03-20T13:16:50.864Z,8.70
2018-03-20T13:19:19.834Z,8.40
2018-03-20T13:21:48.735Z,8.93
2018-03-20T13:24:17.591Z,8.97
2018-03-20T13:26:46.595Z,9.43
2018-03-20T13:29:16.454Z,8.73
2018-03-20T13:31:45.311Z,8.83
2018-03-20T13:34:14.164Z,9.00
2018-03-20T13:36:43.434Z,9.00
2018-03-20T13:39:12.282Z,9.53
2018-03-20T13:41:41.335Z,8.77
2018-03-20T13:44:10.213Z,9.03
2018-03-20T13:46:39.158Z,8.90
2018-03-20T13:49:08.305Z,8.80
2018-03-20T13:51:37.146Z,9.73
2018-03-20T13:54:06.012Z,8.67
2018-03-20T13:56:34.912Z,8.90
2018-03-20T13:59:03.758Z,8.80
2018-03-20T14:01:34.251Z,8.90
2018-03-20T14:04:03.414Z,8.50
2018-03-20T14:06:32.899Z,9.60
2018-03-20T14:09:01.916Z,9.53
2018-03-20T14:11:30.820Z,9.10
2018-03-20T14:13:59.683Z,9.87
2018-03-20T14:16:28.770Z,10.23
2018-03-20T14:18:58.663Z,10.10
2018-03-20T14:21:27.514Z,10.17
2018-03-20T14:23:57.326Z,10.73
2018-03-20T14:26:26.189Z,11.03
2018-03-20T14:28:55.035Z,11.13
2018-03-20T14:31:23.903Z,10.87
2018-03-20T14:33:52.771Z,12.23
2018-03-20T14:36:21.648Z,12.80
2018-03-20T14:38:50.733Z,11.83
2018-03-20T14:41:19.585Z,13.50
2018-03-20T14:43:48.536Z,13.43
2018-03-20T14:46:17.706Z,12.43
2018-03-20T14:48:46.558Z,12.97
2018-03-20T14:51:15.406Z,13.50
2018-03-20T14:53:44.354Z,13.20
2018-03-20T14:56:13.234Z,13.60
2018-03-20T14:58:42.130Z,13.20
2018-03-20T15:01:10.990Z,13.10
2018-03-20T15:03:39.888Z,13.63
2018-03-20T15:06:08.797Z,13.03
2018-03-20T15:08:37.651Z,12.40
2018-03-20T15:11:06.621Z,12.97
2018-03-20T15:13:35.481Z,13.03
2018-03-20T15:16:04.384Z,12.67
2018-03-20T15:18:33.245Z,12.20
2018-03-20T15:21:05.370Z,12.17
2018-03-20T15:23:34.472Z,12.53
2018-03-20T15:26:03.275Z,12.43
2018-03-20T15:28:32.145Z,12.47
2018-03-20T15:31:01.044Z,12.40
2018-03-20T15:33:29.900Z,11.03
2018-03-20T15:35:58.776Z,11.20
2018-03-20T15:38:29.154Z,11.63
2018-03-20T15:40:58.016Z,11.40
2018-03-20T15:43:26.884Z,10.03
2018-03-20T15:45:55.727Z,9.23
2018-03-20T15:48:24.593Z,9.13
2018-03-20T15:50:53.514Z,8.23
2018-03-20T15:53:22.362Z,7.53
2018-03-20T15:55:51.503Z,7.50
2018-03-20T15:58:20.722Z,7.63
2018-03-20T16:00:49.760Z,7.67
2018-03-20T16:03:18.714Z,7.90
2018-03-20T16:05:47.906Z,8.33
2018-03-20T16:08:17.694Z,7.10
2018-03-20T16:10:46.996Z,8.37
2018-03-20T16:13:16.202Z,7.47
2018-03-20T16:15:45.600Z,8.13
2018-03-20T16:18:15.207Z,8.37
2018-03-20T16:20:44.910Z,8.60
2018-03-20T16:23:14.623Z,8.93
2018-03-20T16:25:44.538Z,9.23
2018-03-20T16:28:13.539Z,8.83
2018-03-20T16:30:42.408Z,10.10
2018-03-20T16:33:11.264Z,9.20
2018-03-20T16:35:40.247Z,9.30
2018-03-20T16:38:09.121Z,9.93
2018-03-20T16:40:38.013Z,10.47
2018-03-20T16:43:06.918Z,9.90
2018-03-20T16:45:35.888Z,9.57
2018-03-20T16:48:04.732Z,8.80
2018-03-20T16:50:34.258Z,9.70
2018-03-20T16:53:03.108Z,9.70
2018-03-20T16:55:31.986Z,9.73
2018-03-20T16:58:04.247Z,10.03
2018-03-20T17:00:33.137Z,10.27
2018-03-20T17:03:01.999Z,9.83
2018-03-20T17:05:30.948Z,9.60
2018-03-20T17:07:59.837Z,9.47
2018-03-20T17:10:28.807Z,9.67
2018-03-20T17:12:57.698Z,9.57
2018-03-20T17:15:26.573Z,9.63
2018-03-20T17:17:56.722Z,9.17
2018-03-20T17:20:25.555Z,10.27
2018-03-20T17:22:54.419Z,9.73
2018-03-20T17:25:23.862Z,9.40
2018-03-20T17:27:52.732Z,10.83
2018-03-20T17:30:21.729Z,11.50
2018-03-20T17:32:51.032Z,12.03
2018-03-20T17:35:19.940Z,10.93
2018-03-20T17:37:48.806Z,10.13
2018-03-20T17:40:18.086Z,11.03
2018-03-20T17:42:46.959Z,12.07
2018-03-20T17:45:15.839Z,13.17
2018-03-20T17:47:44.779Z,13.97
2018-03-20T17:50:13.674Z,13.73
2018-03-20T17:52:42.533Z,12.47
2018-03-20T17:55:12.815Z,12.97
2018-03-20T17:57:41.685Z,12.73
2018-03-20T18:00:10.533Z,13.30
2018-03-20T18:02:39.587Z,12.67
2018-03-20T18:05:08.444Z,12.40
2018-03-20T18:07:37.307Z,12.90
2018-03-20T18:10:07.146Z,12.13
2018-03-20T18:12:36.026Z,11.73
2018-03-20T18:15:04.900Z,12.37
2018-03-20T18:17:33.811Z,14.10
2018-03-20T18:20:02.807Z,13.93
2018-03-20T18:22:31.674Z,14.17
2018-03-20T18:25:00.591Z,13.63
2018-03-20T18:27:29.792Z,13.30
2018-03-20T18:29:58.661Z,13.70
2018-03-20T18:32:28.324Z,14.17
2018-03-20T18:34:57.475Z,13.70
2018-03-20T18:37:26.343Z,13.13
2018-03-20T18:39:55.487Z,12.67
2018-03-20T18:42:24.342Z,11.87
2018-03-20T18:44:53.234Z,11.70
2018-03-20T18:47:22.393Z,12.53
2018-03-20T18:49:51.272Z,11.60
2018-03-20T18:52:20.970Z,11.83
2018-03-20T18:54:49.951Z,12.67
2018-03-20T18:57:18.926Z,13.03
2018-03-20T18:59:49.922Z,11.10
2018-03-20T19:02:18.816Z,13.10
2018-03-20T19:04:48.057Z,13.27
2018-03-20T19:07:16.942Z,13.37
2018-03-20T19:09:45.827Z,12.17
2018-03-20T19:12:15.632Z,12.37
2018-03-20T19:14:44.612Z,11.67
2018-03-20T19:17:13.503Z,11.40
2018-03-20T19:19:42.440Z,11.40
2018-03-20T19:22:11.316Z,11.90
2018-03-20T19:24:40.193Z,14.67
2018-03-20T19:27:09.175Z,16.13
2018-03-20T19:29:39.049Z,15.27
2018-03-20T19:32:08.003Z,16.40
2018-03-20T19:34:36.920Z,21.17
2018-03-20T19:37:05.811Z,21.10
2018-03-20T19:39:34.700Z,18.50
2018-03-20T19:42:04.521Z,18.33
2018-03-20T19:44:33.382Z,17.50
2018-03-20T19:47:02.262Z,18.10
2018-03-20T19:49:31.278Z,18.43
2018-03-20T19:52:00.154Z,19.47
2018-03-20T19:54:29.047Z,18.47
2018-03-20T19:56:57.986Z,17.43
2018-03-20T19:59:26.872Z,15.63
2018-03-20T20:01:55.730Z,15.33
2018-03-20T20:04:24.757Z,15.53
2018-03-20T20:06:53.615Z,14.30
2018-03-20T20:09:22.478Z,13.43
2018-03-20T20:11:54.008Z,14.03
2018-03-20T20:14:22.925Z,13.80
2018-03-20T20:16:51.764Z,13.60
2018-03-20T20:19:20.911Z,11.83
2018-03-20T20:21:49.778Z,12.60
2018-03-20T20:24:18.640Z,13.70
2018-03-20T20:26:47.626Z,14.93
2018-03-20T20:29:16.472Z,14.13
2018-03-20T20:31:50.043Z,14.50
2018-03-20T20:34:18.915Z,14.90
2018-03-20T20:36:47.875Z,14.03
2018-03-20T20:39:16.926Z,14.50
2018-03-20T20:41:46.062Z,15.27
2018-03-20T20:44:14.981Z,16.93
2018-03-20T20:46:43.947Z,16.77
2018-03-20T20:49:13.767Z,16.60
2018-03-20T20:51:42.636Z,21.80
2018-03-20T20:54:11.500Z,22.10
2018-03-20T20:56:40.410Z,18.63
2018-03-20T20:59:09.351Z,19.60
2018-03-20T21:01:38.196Z,17.87
2018-03-20T21:04:07.128Z,18.33
2018-03-20T21:06:36.024Z,15.60
2018-03-20T21:09:05.066Z,16.63
2018-03-20T21:11:33.939Z,14.47
2018-03-20T21:14:02.782Z,15.50
2018-03-20T21:16:31.751Z,15.57
2018-03-20T21:19:00.614Z,16.53
2018-03-20T21:21:29.473Z,14.57
2018-03-20T21:23:58.371Z,16.93
2018-03-20T21:26:27.224Z,16.43
2018-03-20T21:28:56.080Z,17.13
2018-03-20T21:31:25.290Z,16.17
2018-03-20T21:33:54.716Z,17.17
2018-03-20T21:36:23.605Z,15.97
2018-03-20T21:38:52.481Z,17.40
2018-03-20T21:41:21.350Z,18.30
2018-03-20T21:43:50.456Z,17.80
2018-03-20T21:46:19.306Z,17.23
2018-03-20T21:48:48.171Z,19.03
2018-03-20T21:51:17.545Z,17.87
2018-03-20T21:53:46.386Z,18.63
2018-03-20T21:56:15.238Z,19.63
2018-03-20T21:58:44.143Z,18.27
2018-03-20T22:01:13.008Z,18.70
2018-03-20T22:03:41.986Z,20.07
2018-03-20T22:06:11.813Z,19.00
2018-03-20T22:08:40.668Z,18.60
2018-03-20T22:11:09.543Z,21.53
2018-03-20T22:13:40.431Z,21.50
2018-03-20T22:16:09.351Z,20.80
2018-03-20T22:18:38.245Z,21.47
2018-03-20T22:21:07.154Z,20.73
2018-03-20T22:23:36.018Z,19.97
2018-03-20T22:26:04.888Z,18.53
2018-03-20T22:28:33.827Z,18.33
2018-03-20T22:31:02.675Z,18.43
2018-03-20T22:33:31.534Z,18.40
2018-03-20T22:36:02.988Z,18.33
2018-03-20T22:38:31.919Z,18.87
2018-03-20T22:41:00.771Z,18.57
2018-03-20T22:43:29.671Z,18.30
2018-03-20T22:45:58.630Z,17.80
2018-03-20T22:48:27.525Z,20.17
2018-03-20T22:50:56.400Z,19.70
2018-03-20T22:53:25.274Z,19.10
2018-03-20T22:55:54.154Z,19.33
2018-03-20T22:58:23.194Z,20.53
2018-03-20T23:00:52.071Z,20.27
2018-03-20T23:03:21.369Z,17.53
2018-03-20T23:05:50.305Z,18.57
2018-03-20T23:08:19.146Z,16.73
2018-03-20T23:10:48.713Z,18.13
2018-03-20T23:13:17.579Z,17.63
2018-03-20T23:15:46.507Z,17.90
2018-03-20T23:18:15.399Z,17.17
2018-03-20T23:20:44.243Z,18.33
2018-03-20T23:23:13.142Z,16.40
2018-03-20T23:25:42.067Z,16.70
2018-03-20T23:28:10.927Z,17.30
2018-03-20T23:30:39.839Z,17.43
2018-03-20T23:33:08.755Z,17.13
2018-03-20T23:35:37.599Z,17.40
2018-03-20T23:38:07.411Z,17.07
2018-03-20T23:40:36.273Z,16.67
2018-03-20T23:43:05.134Z,18.40
2018-03-20T23:45:34.721Z,18.47
2018-03-20T23:48:03.563Z,17.50
2018-03-20T23:50:32.420Z,18.63
2018-03-20T23:53:01.385Z,18.97
2018-03-20T23:55:30.234Z,17.77
2018-03-20T23:57:59.974Z,16.47
